createdAt,value
2022-08-07T00:00:14.764Z,81.33
2022-08-07T00:03:47.392Z,81.37
2022-08-07T00:07:21.506Z,81.67
2022-08-07T00:11:19.844Z,81.92
2022-08-07T00:14:51.650Z,81.59
2022-08-07T00:18:29.687Z,81.16
2022-08-07T00:22:05.366Z,81.44
2022-08-07T00:25:41.860Z,81.96
2022-08-07T00:29:37.885Z,82.05
2022-08-07T00:33:02.225Z,82.07
2022-08-07T00:36:43.047Z,82.47
2022-08-07T00:40:15.820Z,82.22
2022-08-07T00:44:17.618Z,82.81
2022-08-07T00:48:08.329Z,83.29
2022-08-07T00:51:22.278Z,83.57
2022-08-07T00:54:58.921Z,83.64
2022-08-07T00:58:35.665Z,83.43
2022-08-07T01:02:28.916Z,83.27
2022-08-07T01:05:55.830Z,83.10
2022-08-07T01:10:04.452Z,82.78
2022-08-07T01:13:35.154Z,82.89
2022-08-07T01:16:58.145Z,82.96
2022-08-07T01:21:17.511Z,83.23
2022-08-07T01:24:50.119Z,83.02
2022-08-07T01:28:26.499Z,82.87
2022-08-07T01:32:05.268Z,82.71
2022-08-07T01:35:53.990Z,82.63
2022-08-07T01:39:21.884Z,82.85
2022-08-07T01:42:59.243Z,83.22
2022-08-07T01:46:36.427Z,83.24
2022-08-07T01:50:12.490Z,83.24
2022-08-07T01:54:11.925Z,83.15
2022-08-07T01:58:01.201Z,83.12
2022-08-07T02:01:59.445Z,82.95
2022-08-07T02:05:47.918Z,83.20
2022-08-07T02:09:52.326Z,83.26
2022-08-07T02:13:00.038Z,83.05
2022-08-07T02:16:35.847Z,82.73
2022-08-07T02:20:19.747Z,82.37
2022-08-07T02:23:49.437Z,82.20
2022-08-07T02:27:26.752Z,82.36
2022-08-07T02:31:28.811Z,82.68
2022-08-07T02:34:53.628Z,83.13
2022-08-07T02:38:32.195Z,83.07
2022-08-07T02:42:10.278Z,82.93
2022-08-07T02:45:58.768Z,82.98
2022-08-07T02:49:29.133Z,82.75
2022-08-07T02:53:12.150Z,82.60
2022-08-07T02:56:48.072Z,82.30
2022-08-07T03:00:23.674Z,82.41
2022-08-07T03:03:59.446Z,82.69
2022-08-07T03:08:04.818Z,82.80
2022-08-07T03:11:20.953Z,82.77
2022-08-07T03:14:57.261Z,83.12
2022-08-07T03:18:36.090Z,83.18
2022-08-07T03:22:18.619Z,82.87
2022-08-07T03:25:50.771Z,82.59
2022-08-07T03:29:25.173Z,82.18
2022-08-07T03:33:01.701Z,82.04
2022-08-07T03:36:40.202Z,82.19
2022-08-07T03:40:16.395Z,82.60
2022-08-07T03:43:57.368Z,82.94
2022-08-07T03:47:51.252Z,83.35
2022-08-07T03:51:15.236Z,83.27
2022-08-07T03:55:10.597Z,83.11
2022-08-07T03:59:07.049Z,82.97
2022-08-07T04:02:19.296Z,82.67
2022-08-07T04:06:37.308Z,82.49
2022-08-07T04:09:56.712Z,82.82
2022-08-07T04:14:32.896Z,83.06
2022-08-07T04:18:56.929Z,83.36
2022-08-07T04:21:18.971Z,83.49
2022-08-07T04:25:17.560Z,83.62
2022-08-07T04:28:58.534Z,83.64
2022-08-07T04:32:34.119Z,83.66
2022-08-07T04:36:17.675Z,84.04
2022-08-07T04:40:04.978Z,84.46
2022-08-07T04:44:13.036Z,84.35
2022-08-07T04:48:07.781Z,83.91
2022-08-07T04:51:46.903Z,83.67
2022-08-07T04:58:10.247Z,84.06
2022-08-07T05:00:12.066Z,84.12
2022-08-07T05:04:17.157Z,84.34
2022-08-07T05:07:51.726Z,84.12
2022-08-07T05:11:57.315Z,84.13
2022-08-07T05:15:25.431Z,84.19
2022-08-07T05:19:14.923Z,84.86
2022-08-07T05:22:39.583Z,85.14
2022-08-07T05:26:24.261Z,86.46
2022-08-07T05:29:53.743Z,87.44
2022-08-07T05:34:01.235Z,87.29
2022-08-07T05:37:28.728Z,88.02
2022-08-07T05:41:11.955Z,87.62
2022-08-07T05:44:52.761Z,88.70
2022-08-07T05:48:58.017Z,87.74
2022-08-07T05:52:20.669Z,88.62
2022-08-07T05:56:18.850Z,88.43
2022-08-07T05:59:57.853Z,89.29
2022-08-07T06:03:57.113Z,88.56
2022-08-07T06:07:22.743Z,88.56
2022-08-07T06:10:57.131Z,88.51
2022-08-07T06:14:52.933Z,88.33
2022-08-07T06:18:15.924Z,88.39
2022-08-07T06:22:15.778Z,87.48
2022-08-07T06:25:54.423Z,87.29
2022-08-07T06:29:28.639Z,87.05
2022-08-07T06:33:01.237Z,87.11
2022-08-07T06:36:37.377Z,87.09
2022-08-07T06:40:20.671Z,86.31
2022-08-07T06:44:16.335Z,86.39
2022-08-07T06:47:57.117Z,86.04
2022-08-07T06:51:33.190Z,86.02
2022-08-07T06:55:33.377Z,85.97
2022-08-07T07:00:13.372Z,85.85
2022-08-07T07:02:54.092Z,86.03
2022-08-07T07:06:26.436Z,84.70
2022-08-07T07:10:26.695Z,84.65
2022-08-07T07:14:08.328Z,84.96
2022-08-07T07:18:05.573Z,85.15
2022-08-07T07:21:40.204Z,84.74
2022-08-07T07:26:33.145Z,84.42
2022-08-07T07:29:56.236Z,84.53
2022-08-07T07:33:12.624Z,84.50
2022-08-07T07:37:14.489Z,84.45
2022-08-07T07:40:46.898Z,84.29
2022-08-07T07:44:26.479Z,83.80
2022-08-07T07:47:59.356Z,83.61
2022-08-07T07:51:58.165Z,83.35
2022-08-07T07:55:20.947Z,83.39
2022-08-07T07:58:57.498Z,82.93
2022-08-07T08:02:35.637Z,82.06
2022-08-07T08:06:30.546Z,81.40
2022-08-07T08:10:05.374Z,81.31
2022-08-07T08:13:36.558Z,81.44
2022-08-07T08:18:17.664Z,81.31
2022-08-07T08:21:55.950Z,80.81
2022-08-07T08:25:43.038Z,80.18
2022-08-07T08:29:16.483Z,79.21
2022-08-07T08:33:01.892Z,78.72
2022-08-07T08:36:32.056Z,79.03
2022-08-07T08:40:39.727Z,78.58
2022-08-07T08:44:14.424Z,78.22
2022-08-07T08:48:32.421Z,77.34
2022-08-07T08:52:14.177Z,76.30
2022-08-07T08:55:54.830Z,75.05
2022-08-07T08:59:57.192Z,74.89
2022-08-07T09:03:52.765Z,73.11
2022-08-07T09:07:59.015Z,73.30
2022-08-07T09:11:55.449Z,68.37
2022-08-07T09:16:22.556Z,67.07
2022-08-07T09:19:53.200Z,62.77
2022-08-07T09:24:32.871Z,61.93
2022-08-07T09:28:00.240Z,62.38
2022-08-07T09:31:53.935Z,61.67
2022-08-07T09:36:04.464Z,62.62
2022-08-07T09:39:55.290Z,63.34
2022-08-07T09:44:03.298Z,60.64
2022-08-07T09:48:01.604Z,59.02
2022-08-07T09:52:16.587Z,59.45
2022-08-07T09:56:03.842Z,58.25
2022-08-07T09:59:46.729Z,58.09
2022-08-07T10:04:06.089Z,58.13
2022-08-07T10:07:39.817Z,56.00
2022-08-07T10:12:13.311Z,55.24
2022-08-07T10:16:11.315Z,56.25
2022-08-07T10:20:06.593Z,55.61
2022-08-07T10:24:08.604Z,52.14
2022-08-07T10:28:28.552Z,52.11
2022-08-07T10:32:36.573Z,52.79
2022-08-07T10:36:29.843Z,51.78
2022-08-07T10:40:05.356Z,52.87
2022-08-07T10:44:13.149Z,53.55
2022-08-07T10:48:09.712Z,54.81
2022-08-07T10:52:13.476Z,52.30
2022-08-07T10:55:47.722Z,51.07
2022-08-07T10:59:47.650Z,52.09
2022-08-07T11:03:27.918Z,51.93
2022-08-07T11:07:24.785Z,49.15
2022-08-07T11:11:10.636Z,48.27
2022-08-07T11:14:59.868Z,48.48
2022-08-07T11:18:50.658Z,49.80
2022-08-07T11:22:37.255Z,48.92
2022-08-07T11:26:19.784Z,46.44
2022-08-07T11:30:18.657Z,46.74
2022-08-07T11:34:16.476Z,47.79
2022-08-07T11:38:10.516Z,45.54
2022-08-07T11:42:02.093Z,43.32
2022-08-07T11:45:57.390Z,44.96
2022-08-07T11:50:18.518Z,44.34
2022-08-07T11:53:25.249Z,43.54
2022-08-07T11:57:20.793Z,43.16
2022-08-07T12:01:59.963Z,45.14
2022-08-07T12:05:47.629Z,44.33
2022-08-07T12:09:46.172Z,43.62
2022-08-07T12:13:35.612Z,42.06
2022-08-07T12:17:19.729Z,42.30
2022-08-07T12:20:57.166Z,40.16
2022-08-07T12:26:00.893Z,39.55
2022-08-07T12:29:15.999Z,41.68
2022-08-07T12:33:18.711Z,41.14
2022-08-07T12:37:08.231Z,40.18
2022-08-07T12:40:48.954Z,40.54
2022-08-07T12:44:36.127Z,40.16
2022-08-07T12:48:27.542Z,38.75
2022-08-07T12:52:13.631Z,41.54
2022-08-07T12:56:02.626Z,41.47
2022-08-07T12:59:33.161Z,41.04
2022-08-07T13:04:03.164Z,41.63
2022-08-07T13:08:12.304Z,41.98
2022-08-07T13:12:01.897Z,40.41
2022-08-07T13:15:33.433Z,39.06
2022-08-07T13:19:21.649Z,39.24
2022-08-07T13:23:09.919Z,39.29
2022-08-07T13:27:22.696Z,38.95
2022-08-07T13:31:14.009Z,39.58
2022-08-07T13:34:44.729Z,39.62
2022-08-07T13:38:57.264Z,41.51
2022-08-07T13:42:24.854Z,43.76
2022-08-07T13:46:11.977Z,42.09
2022-08-07T13:50:33.400Z,40.64
2022-08-07T13:54:00.546Z,40.95
2022-08-07T13:57:32.096Z,39.72
2022-08-07T14:01:27.141Z,39.04
2022-08-07T14:05:12.595Z,38.12
2022-08-07T14:08:54.869Z,38.79
2022-08-07T14:12:54.004Z,36.46
2022-08-07T14:16:17.892Z,37.22
2022-08-07T14:20:39.310Z,39.04
2022-08-07T14:24:33.449Z,40.26
2022-08-07T14:28:12.569Z,41.68
2022-08-07T14:31:42.724Z,40.16
2022-08-07T14:35:43.147Z,39.07
2022-08-07T14:50:26.356Z,36.48
2022-08-07T14:54:31.039Z,36.91
2022-08-07T14:57:59.120Z,36.66
2022-08-07T15:01:42.842Z,35.57
2022-08-07T15:05:33.913Z,35.25
2022-08-07T15:09:59.209Z,34.96
2022-08-07T15:16:54.596Z,32.55
2022-08-07T15:20:33.290Z,31.35
2022-08-07T15:28:30.673Z,31.40
2022-08-07T15:39:19.267Z,31.94
2022-08-07T15:47:18.211Z,32.38
2022-08-07T15:51:07.853Z,32.82
2022-08-07T15:54:50.902Z,33.71
2022-08-07T15:58:20.894Z,33.25
2022-08-07T16:02:02.396Z,34.09
2022-08-07T16:05:31.365Z,35.13
2022-08-07T16:09:22.691Z,34.04
2022-08-07T16:13:17.548Z,34.54
2022-08-07T16:16:56.998Z,35.59
2022-08-07T16:20:33.730Z,36.09
2022-08-07T16:24:34.451Z,36.36
2022-08-07T16:30:06.016Z,36.53
2022-08-07T16:32:34.963Z,37.28
2022-08-07T16:36:20.701Z,36.86
2022-08-07T16:40:23.448Z,36.89
2022-08-07T16:44:46.405Z,37.54
2022-08-07T16:48:58.532Z,37.34
2022-08-07T16:52:49.288Z,37.11
2022-08-07T16:56:18.832Z,37.19
2022-08-07T17:00:05.535Z,37.39
2022-08-07T17:03:58.493Z,37.72
2022-08-07T17:07:55.367Z,37.93
2022-08-07T17:12:44.684Z,37.64
2022-08-07T17:16:02.076Z,38.21
2022-08-07T17:20:02.179Z,38.44
2022-08-07T17:23:22.556Z,38.80
2022-08-07T17:27:07.214Z,39.02
2022-08-07T17:30:57.586Z,39.65
2022-08-07T17:34:57.218Z,40.37
2022-08-07T17:38:33.362Z,40.69
2022-08-07T17:42:07.002Z,41.38
2022-08-07T17:46:11.880Z,41.78
2022-08-07T17:49:44.636Z,42.48
2022-08-07T17:54:01.516Z,43.14
2022-08-07T17:57:59.219Z,43.58
2022-08-07T18:01:36.663Z,44.44
2022-08-07T18:05:21.719Z,45.18
2022-08-07T18:09:05.889Z,45.85
2022-08-07T18:13:09.969Z,46.42
2022-08-07T18:16:57.674Z,47.42
2022-08-07T18:21:10.554Z,47.58
2022-08-07T18:24:33.743Z,48.78
2022-08-07T18:28:36.075Z,49.62
2022-08-07T18:32:25.778Z,50.18
2022-08-07T18:36:32.720Z,49.76
2022-08-07T18:40:39.938Z,50.23
2022-08-07T18:44:29.478Z,50.85
2022-08-07T18:50:06.133Z,50.93
2022-08-07T18:52:40.995Z,51.25
2022-08-07T18:56:37.685Z,51.33
2022-08-07T19:00:35.272Z,51.89
2022-08-07T19:04:54.644Z,52.06
2022-08-07T19:08:46.341Z,52.35
2022-08-07T19:12:17.962Z,52.15
2022-08-07T19:16:05.804Z,52.29
2022-08-07T19:20:05.407Z,52.52
2022-08-07T19:23:58.901Z,53.01
2022-08-07T19:28:29.763Z,52.83
2022-08-07T19:32:11.514Z,53.55
2022-08-07T19:35:33.120Z,53.67
2022-08-07T19:39:04.827Z,53.81
2022-08-07T19:43:07.992Z,53.81
2022-08-07T19:46:35.757Z,53.74
2022-08-07T19:50:44.326Z,53.97
2022-08-07T19:54:31.809Z,53.86
2022-08-07T19:58:15.523Z,53.96
2022-08-07T20:01:52.581Z,54.41
2022-08-07T20:05:29.774Z,54.30
2022-08-07T20:09:02.983Z,54.14
2022-08-07T20:12:38.206Z,54.43
2022-08-07T20:16:36.125Z,54.83
2022-08-07T20:19:59.184Z,54.83
2022-08-07T20:23:42.915Z,54.81
2022-08-07T20:27:47.763Z,54.89
2022-08-07T20:31:21.389Z,54.96
2022-08-07T20:34:51.039Z,54.99
2022-08-07T20:38:59.339Z,55.42
2022-08-07T20:42:27.096Z,55.95
2022-08-07T20:46:26.006Z,56.04
2022-08-07T20:49:58.049Z,55.83
2022-08-07T20:54:04.654Z,56.20
2022-08-07T20:57:29.728Z,56.23
2022-08-07T21:01:19.749Z,56.34
2022-08-07T21:04:45.920Z,56.31
2022-08-07T21:08:39.310Z,56.30
2022-08-07T21:12:15.100Z,56.85
2022-08-07T21:15:58.374Z,56.66
2022-08-07T21:19:51.370Z,56.99
2022-08-07T21:23:33.408Z,57.43
2022-08-07T21:27:55.050Z,57.12
2022-08-07T21:32:10.770Z,57.38
2022-08-07T21:36:05.792Z,57.38
2022-08-07T21:39:48.078Z,57.44
2022-08-07T21:43:22.841Z,57.51
2022-08-07T21:47:12.302Z,57.35
2022-08-07T21:50:45.661Z,57.59
2022-08-07T21:54:45.948Z,57.41
2022-08-07T21:58:55.827Z,57.97
2022-08-07T22:02:37.845Z,58.26
2022-08-07T22:06:30.012Z,58.15
2022-08-07T22:10:01.383Z,58.49
2022-08-07T22:13:52.039Z,58.74
2022-08-07T22:17:19.442Z,58.75
2022-08-07T22:21:11.475Z,59.07
2022-08-07T22:25:10.348Z,59.04
2022-08-07T22:29:09.031Z,59.12
2022-08-07T22:32:53.075Z,59.24
2022-08-07T22:36:48.730Z,59.40
2022-08-07T22:40:44.934Z,59.55
2022-08-07T22:44:18.574Z,59.65
2022-08-07T22:48:31.659Z,59.82
2022-08-07T22:52:37.338Z,59.81
2022-08-07T22:56:34.773Z,59.86
2022-08-07T23:00:14.336Z,60.34
2022-08-07T23:04:29.924Z,60.86
2022-08-07T23:08:49.707Z,60.93
2022-08-07T23:12:42.342Z,60.86
2022-08-07T23:16:55.378Z,60.72
2022-08-07T23:21:05.788Z,60.74
2022-08-07T23:25:00.277Z,60.60
2022-08-07T23:28:29.162Z,60.69
2022-08-07T23:34:19.878Z,60.56
2022-08-07T23:36:43.078Z,60.65
2022-08-07T23:40:11.864Z,60.75
2022-08-07T23:44:29.792Z,60.88
2022-08-07T23:48:03.563Z,60.72
2022-08-07T23:53:01.649Z,60.90
2022-08-07T23:56:02.316Z,60.87
